Time;durP1;ratioP1;P1;durP2;ratioP2;P2;SDS_P1;SDS_P2;PMS_P1;PMS_P2;Temp;Humidity;BMP_temperature;BMP_pressure;BME280_temperature;BME280_humidity;BME280_pressure;Samples;Min_cycle;Max_cycle;Signal;HPM_P1;HPM_P2
2021/05/29 00:01:32;;;;;;;8.77;7.13;;;;;;;9.87;81.26;102637.59;5110923;28;20044;-43
2021/05/29 00:04:00;;;;;;;7.55;6.43;;;;;;;9.85;81.36;102638.94;5111629;28;20046;-43
2021/05/29 00:06:27;;;;;;;8.32;6.78;;;;;;;9.81;81.47;102630.22;5111672;28;20056;-44
2021/05/29 00:08:55;;;;;;;9.65;6.40;;;;;;;9.79;81.60;102631.59;5111079;28;20043;-44
2021/05/29 00:11:22;;;;;;;8.43;6.38;;;;;;;9.76;81.63;102638.53;5111240;28;20449;-42
2021/05/29 00:13:50;;;;;;;8.32;6.35;;;;;;;9.76;81.70;102640.47;5111632;28;20071;-44
2021/05/29 00:16:18;;;;;;;7.50;6.32;;;;;;;9.72;81.89;102642.91;5110853;27;20043;-42
2021/05/29 00:18:45;;;;;;;10.90;7.00;;;;;;;9.71;82.04;102634.78;5111693;28;20051;-43
2021/05/29 00:21:13;;;;;;;9.13;7.28;;;;;;;9.68;81.95;102636.13;5103297;28;20058;-43
2021/05/29 00:23:40;;;;;;;8.85;7.07;;;;;;;9.64;82.00;102632.13;5110658;28;20051;-44
2021/05/29 00:26:08;;;;;;;8.30;5.93;;;;;;;9.61;81.98;102638.19;5111129;28;20048;-43
2021/05/29 00:28:36;;;;;;;9.73;7.45;;;;;;;9.56;81.96;102632.56;5111493;28;20154;-43
2021/05/29 00:31:04;;;;;;;7.55;5.70;;;;;;;9.55;82.26;102630.88;5110670;28;20043;-42
2021/05/29 00:33:32;;;;;;;10.13;7.57;;;;;;;9.53;82.32;102631.09;5111455;28;20063;-43
2021/05/29 00:35:59;;;;;;;10.85;8.05;;;;;;;9.52;82.23;102634.13;5110961;28;20047;-43
2021/05/29 00:38:26;;;;;;;9.52;7.32;;;;;;;9.51;82.38;102636.09;5110713;28;20047;-44
2021/05/29 00:40:54;;;;;;;12.48;8.50;;;;;;;9.49;82.65;102632.69;5111106;28;20222;-44
2021/05/29 00:43:21;;;;;;;10.27;7.88;;;;;;;9.48;82.50;102632.94;5110960;28;20112;-43
2021/05/29 00:45:49;;;;;;;12.13;8.55;;;;;;;9.46;82.69;102640.69;5111088;28;20040;-43
2021/05/29 00:48:17;;;;;;;11.63;8.43;;;;;;;9.45;82.78;102642.63;5109757;28;20039;-43
2021/05/29 00:50:48;;;;;;;9.57;7.63;;;;;;;9.43;83.01;102638.41;5110622;28;20054;-44
2021/05/29 00:53:16;;;;;;;10.57;8.00;;;;;;;9.41;82.91;102641.44;5110604;28;20054;-43
2021/05/29 00:55:44;;;;;;;10.15;7.13;;;;;;;9.41;82.95;102643.38;5111115;28;20043;-43
2021/05/29 00:58:11;;;;;;;11.98;8.23;;;;;;;9.40;83.26;102647.25;5110395;28;20055;-42
2021/05/29 01:00:39;;;;;;;8.60;6.43;;;;;;;9.39;83.33;102648.38;5111105;28;20039;-42
2021/05/29 01:03:06;;;;;;;8.45;6.68;;;;;;;9.38;83.14;102650.31;5114318;28;20051;-44
2021/05/29 01:05:35;;;;;;;10.00;6.82;;;;;;;9.38;83.32;102647.53;5114399;28;20120;-43
2021/05/29 01:08:03;;;;;;;12.35;8.50;;;;;;;9.35;83.51;102652.75;5115345;28;20054;-43
2021/05/29 01:10:30;;;;;;;12.00;8.30;;;;;;;9.32;83.35;102648.50;5115056;28;20438;-43
2021/05/29 01:12:59;;;;;;;13.25;7.80;;;;;;;9.27;83.25;102649.25;5114573;28;20050;-40
2021/05/29 01:15:32;;;;;;;8.60;6.22;;;;;;;9.24;83.30;102660.88;5114955;28;20048;-43
2021/05/29 01:18:00;;;;;;;10.63;7.13;;;;;;;9.20;83.45;102650.47;5114737;28;20047;-42
2021/05/29 01:20:27;;;;;;;11.13;8.02;;;;;;;9.17;83.55;102657.41;5114442;28;20051;-42
2021/05/29 01:22:57;;;;;;;10.35;7.25;;;;;;;9.16;83.67;102664.06;5114684;28;20066;-43
2021/05/29 01:25:28;;;;;;;9.45;7.28;;;;;;;9.14;83.62;102660.69;5114457;28;20117;-44
2021/05/29 01:28:00;;;;;;;8.98;6.30;;;;;;;9.13;83.63;102658.97;5114644;28;20043;-43
2021/05/29 01:30:30;;;;;;;13.75;8.80;;;;;;;9.12;83.90;102665.63;5114798;28;20052;-44
2021/05/29 01:32:59;;;;;;;11.63;8.02;;;;;;;9.10;84.00;102658.63;5112462;28;20393;-45
2021/05/29 01:35:27;;;;;;;12.18;8.35;;;;;;;9.08;83.84;102666.38;5114860;28;20073;-42
2021/05/29 01:37:56;;;;;;;11.18;8.20;;;;;;;9.07;83.99;102659.09;5114341;28;20456;-44
2021/05/29 01:40:23;;;;;;;10.60;7.53;;;;;;;9.04;84.01;102657.66;5114036;28;20040;-44
2021/05/29 01:42:51;;;;;;;12.15;9.50;;;;;;;9.03;84.20;102661.53;5112857;28;20113;-44
2021/05/29 01:45:18;;;;;;;12.43;9.65;;;;;;;8.99;84.07;102657.56;5114238;28;20047;-46
2021/05/29 01:47:46;;;;;;;13.23;10.05;;;;;;;8.99;84.30;102657.56;5113793;28;20124;-45
2021/05/29 01:50:16;;;;;;;11.35;7.50;;;;;;;8.98;84.32;102658.66;5113581;28;20043;-46
2021/05/29 01:52:45;;;;;;;8.00;6.20;;;;;;;8.96;84.18;102658.06;5112888;28;20120;-46
2021/05/29 01:55:14;;;;;;;11.73;9.10;;;;;;;8.94;84.40;102660.22;5112116;28;20051;-44
2021/05/29 01:57:41;;;;;;;9.40;7.13;;;;;;;8.93;84.60;102667.72;5114021;28;20055;-45
2021/05/29 02:00:10;;;;;;;9.80;8.07;;;;;;;8.93;84.47;102662.16;5114109;28;20475;-48
2021/05/29 02:02:42;;;;;;;11.57;8.10;;;;;;;8.94;84.64;102663.84;5113712;28;20055;-46
2021/05/29 02:05:11;;;;;;;11.65;8.13;;;;;;;8.93;84.69;102664.09;5114064;28;20051;-45
2021/05/29 02:07:39;;;;;;;13.50;10.57;;;;;;;8.91;84.92;102667.13;5113375;28;20086;-43
2021/05/29 02:10:08;;;;;;;9.60;6.28;;;;;;;8.91;85.21;102666.28;5113862;28;20147;-44
2021/05/29 02:12:41;;;;;;;10.75;7.95;;;;;;;8.91;85.37;102658.78;5113896;28;20431;-52
2021/05/29 02:15:12;;;;;;;10.85;7.65;;;;;;;8.89;85.27;102662.88;5113017;28;20043;-47
2021/05/29 02:17:39;;;;;;;12.27;9.57;;;;;;;8.87;85.19;102670.63;5113771;28;20074;-45
2021/05/29 02:20:08;;;;;;;12.45;9.32;;;;;;;8.83;85.38;102663.84;5113878;28;20062;-45
2021/05/29 02:22:35;;;;;;;12.00;9.35;;;;;;;8.81;85.61;102671.59;5111725;28;20036;-44
2021/05/29 02:25:05;;;;;;;11.65;8.13;;;;;;;8.79;85.29;102668.25;5113892;28;20039;-45
2021/05/29 02:27:32;;;;;;;9.73;8.02;;;;;;;8.76;85.27;102669.56;5113758;28;20060;-46
2021/05/29 02:30:01;;;;;;;11.88;8.60;;;;;;;8.75;85.40;102669.81;5111583;28;20424;-48
2021/05/29 02:32:28;;;;;;;9.65;7.32;;;;;;;8.74;85.59;102671.75;5113855;28;20075;-45
2021/05/29 02:34:56;;;;;;;10.35;7.78;;;;;;;8.76;85.65;102669.56;5113265;28;20540;-45
2021/05/29 02:37:23;;;;;;;13.65;10.57;;;;;;;8.77;85.62;102674.03;5101835;28;20048;-45
2021/05/29 02:39:51;;;;;;;12.43;9.65;;;;;;;8.77;85.83;102676.81;5113090;28;20466;-46
2021/05/29 02:42:18;;;;;;;15.88;11.95;;;;;;;8.78;85.59;102677.69;5113504;28;20081;-46
2021/05/29 02:44:46;;;;;;;10.82;7.78;;;;;;;8.80;85.84;102678.25;5112695;28;20040;-44
2021/05/29 02:47:14;;;;;;;10.48;8.32;;;;;;;8.83;85.82;102684.19;5113169;28;20606;-45
2021/05/29 02:49:41;;;;;;;10.45;7.70;;;;;;;8.84;86.04;102673.91;5113107;28;20055;-47
2021/05/29 02:52:09;;;;;;;12.18;9.77;;;;;;;8.86;86.03;102678.13;5112550;28;20154;-44
2021/05/29 02:54:41;;;;;;;12.05;8.43;;;;;;;8.90;85.92;102681.28;5113184;28;20548;-47
2021/05/29 02:57:09;;;;;;;12.70;9.80;;;;;;;8.92;86.26;102677.19;5112662;28;20043;-45
2021/05/29 02:59:37;;;;;;;11.52;9.25;;;;;;;8.93;85.94;102686.38;5113069;28;20095;-44
2021/05/29 03:02:05;;;;;;;12.85;10.07;;;;;;;8.94;86.12;102685.28;5112731;28;20047;-44
2021/05/29 03:04:34;;;;;;;9.50;7.38;;;;;;;8.96;86.17;102683.09;5112114;28;20599;-47
2021/05/29 03:07:02;;;;;;;9.45;7.32;;;;;;;8.98;86.38;102679.00;5112737;28;20044;-47
2021/05/29 03:09:29;;;;;;;8.07;6.15;;;;;;;9.00;86.51;102675.94;5112673;28;20038;-46
2021/05/29 03:11:57;;;;;;;11.50;8.18;;;;;;;9.03;86.36;102680.16;5111873;28;20587;-45
2021/05/29 03:14:25;;;;;;;10.40;7.57;;;;;;;9.03;86.47;102683.81;5112481;28;20052;-44
2021/05/29 03:16:52;;;;;;;15.35;11.80;;;;;;;9.05;86.26;102681.63;5111937;28;20071;-44
2021/05/29 03:19:20;;;;;;;14.65;10.45;;;;;;;9.04;86.49;102682.72;5111539;28;20048;-43
2021/05/29 03:21:48;;;;;;;9.82;6.85;;;;;;;9.04;86.39;102685.50;5108659;28;20094;-49
2021/05/29 03:24:16;;;;;;;12.52;8.70;;;;;;;9.03;86.67;102689.38;5112581;28;20052;-46
2021/05/29 03:26:44;;;;;;;10.43;8.82;;;;;;;9.03;86.63;102689.38;5110384;28;20112;-43
2021/05/29 03:29:11;;;;;;;13.45;10.00;;;;;;;9.03;86.56;102688.53;5112128;28;20040;-43
2021/05/29 03:31:38;;;;;;;12.80;9.43;;;;;;;9.02;86.67;102690.47;5111982;28;20044;-45
2021/05/29 03:34:06;;;;;;;16.50;12.93;;;;;;;9.02;86.68;102696.03;5112019;28;20040;-42
2021/05/29 03:36:33;;;;;;;11.43;9.07;;;;;;;8.98;86.82;102692.91;5112111;28;20043;-43
2021/05/29 03:39:01;;;;;;;15.05;11.25;;;;;;;8.98;86.98;102701.28;5112184;28;20745;-44
2021/05/29 03:41:28;;;;;;;10.20;7.43;;;;;;;8.97;86.95;102704.28;5112157;28;20097;-46
2021/05/29 03:43:56;;;;;;;14.85;10.40;;;;;;;8.97;87.14;102695.94;5111957;28;20462;-43
2021/05/29 03:46:23;;;;;;;11.07;8.48;;;;;;;8.97;87.13;102701.50;5111747;28;20066;-44
2021/05/29 03:48:51;;;;;;;14.20;9.90;;;;;;;8.97;87.19;102705.16;5110792;28;20058;-44
2021/05/29 03:51:18;;;;;;;14.48;11.10;;;;;;;8.96;87.28;102708.16;5112060;28;20043;-45
2021/05/29 03:53:46;;;;;;;16.52;12.23;;;;;;;8.95;87.28;102706.47;5111525;28;20055;-43
2021/05/29 03:56:14;;;;;;;19.02;13.98;;;;;;;8.93;87.32;102705.88;5111558;27;20051;-47
2021/05/29 03:58:42;;;;;;;16.35;12.10;;;;;;;8.91;87.52;102708.03;5110650;28;20051;-43
2021/05/29 04:01:09;;;;;;;14.70;10.55;;;;;;;8.90;87.63;102714.69;5111409;28;20042;-44
2021/05/29 04:03:37;;;;;;;21.23;13.95;;;;;;;8.90;87.37;102706.34;5112083;28;20046;-43
2021/05/29 04:06:04;;;;;;;14.15;9.80;;;;;;;8.89;87.53;102716.63;5110455;28;20043;-42
2021/05/29 04:08:31;;;;;;;18.45;14.25;;;;;;;8.89;87.59;102713.84;5110962;28;20101;-48
2021/05/29 04:10:59;;;;;;;19.25;13.82;;;;;;;8.90;87.62;102714.69;5110022;28;20064;-42
2021/05/29 04:13:27;;;;;;;17.52;11.57;;;;;;;8.92;87.58;102712.53;5110204;28;20135;-46
2021/05/29 04:15:54;;;;;;;19.45;13.65;;;;;;;8.95;87.92;102724.03;5111276;28;20055;-45
2021/05/29 04:18:23;;;;;;;17.02;11.98;;;;;;;8.98;87.92;102717.13;5111308;28;20036;-44
2021/05/29 04:20:50;;;;;;;11.63;8.55;;;;;;;9.02;87.84;102726.66;5111782;28;20131;-43
2021/05/29 04:23:18;;;;;;;14.20;9.85;;;;;;;9.07;88.06;102729.56;5110456;28;20051;-44
2021/05/29 04:25:45;;;;;;;14.95;11.13;;;;;;;9.13;88.00;102728.59;5111655;28;20434;-46
2021/05/29 04:28:12;;;;;;;13.52;9.38;;;;;;;9.18;88.06;102727.88;5111413;28;20130;-43
2021/05/29 04:30:41;;;;;;;11.20;8.50;;;;;;;9.24;87.91;102733.31;5101559;28;20124;-44
2021/05/29 04:33:09;;;;;;;14.30;9.85;;;;;;;9.31;88.10;102731.25;5111414;28;20423;-44
2021/05/29 04:35:37;;;;;;;19.95;13.60;;;;;;;9.40;88.09;102733.63;5110875;28;20054;-45
2021/05/29 04:38:04;;;;;;;22.80;14.68;;;;;;;9.46;88.24;102732.66;5110793;28;20039;-43
2021/05/29 04:40:32;;;;;;;20.50;14.95;;;;;;;9.51;88.26;102729.97;5111450;28;20050;-43
2021/05/29 04:43:00;;;;;;;12.85;9.63;;;;;;;9.56;88.31;102738.47;5110773;28;20077;-44
2021/05/29 04:45:28;;;;;;;11.52;8.80;;;;;;;9.58;88.33;102739.06;5111295;28;20082;-43
2021/05/29 04:47:57;;;;;;;16.02;11.95;;;;;;;9.63;88.51;102740.00;5111002;28;20081;-42
2021/05/29 04:50:24;;;;;;;26.08;17.08;;;;;;;9.70;88.59;102734.28;5110705;28;20036;-43
2021/05/29 04:52:52;;;;;;;16.88;11.90;;;;;;;9.77;88.48;102736.94;5111125;28;20109;-45
2021/05/29 04:55:21;;;;;;;22.67;15.77;;;;;;;9.85;88.72;102742.94;5102672;28;20056;-43
2021/05/29 04:57:48;;;;;;;15.65;10.93;;;;;;;9.93;88.75;102747.31;5109770;28;20493;-44
2021/05/29 05:00:18;;;;;;;16.33;10.90;;;;;;;10.02;88.95;102749.41;5110744;28;20100;-43
2021/05/29 05:02:45;;;;;;;23.55;15.50;;;;;;;10.12;89.12;102753.50;5111281;28;20093;-42
2021/05/29 05:05:14;;;;;;;17.58;12.52;;;;;;;10.20;89.01;102755.91;5106319;28;20043;-43
2021/05/29 05:07:42;;;;;;;21.45;13.45;;;;;;;10.27;89.09;102745.47;5111301;28;20047;-45
2021/05/29 05:10:11;;;;;;;19.83;13.48;;;;;;;10.34;89.07;102760.09;5110878;28;20043;-42
2021/05/29 05:12:38;;;;;;;15.88;11.68;;;;;;;10.41;89.23;102746.81;5110572;28;20067;-45
2021/05/29 05:15:07;;;;;;;18.75;12.20;;;;;;;10.45;88.93;102753.59;5110969;28;20520;-46
2021/05/29 05:17:35;;;;;;;20.75;12.70;;;;;;;10.48;88.92;102758.69;5110623;28;20134;-43
2021/05/29 05:20:04;;;;;;;17.67;12.45;;;;;;;10.54;89.07;102754.03;5111081;28;20047;-44
2021/05/29 05:22:32;;;;;;;13.45;9.93;;;;;;;10.58;89.15;102752.44;5111144;28;20457;-43
2021/05/29 05:24:59;;;;;;;19.08;13.02;;;;;;;10.64;89.10;102759.78;5110353;28;20051;-43
2021/05/29 05:27:27;;;;;;;16.00;10.43;;;;;;;10.69;89.00;102752.34;5106387;28;20059;-42
2021/05/29 05:29:54;;;;;;;18.75;11.80;;;;;;;10.74;89.05;102759.97;5110967;28;20074;-43
2021/05/29 05:32:22;;;;;;;17.25;12.10;;;;;;;10.79;89.03;102757.25;5109924;28;20141;-43
2021/05/29 05:34:50;;;;;;;16.40;11.43;;;;;;;10.86;88.99;102759.88;5111012;28;20035;-45
2021/05/29 05:37:17;;;;;;;15.52;11.52;;;;;;;10.89;88.82;102765.78;5110712;28;20055;-42
2021/05/29 05:39:45;;;;;;;13.95;9.45;;;;;;;10.92;88.73;102762.50;5110776;28;20104;-43
2021/05/29 05:42:13;;;;;;;14.65;10.02;;;;;;;10.97;88.74;102767.31;5111038;28;20044;-43
2021/05/29 05:44:40;;;;;;;12.55;9.38;;;;;;;11.04;88.73;102767.97;5110461;28;20134;-44
2021/05/29 05:47:08;;;;;;;15.80;10.27;;;;;;;11.08;88.59;102774.75;5110349;28;20430;-43
2021/05/29 05:49:37;;;;;;;11.82;8.73;;;;;;;11.13;88.44;102774.00;5113044;28;20470;-46
2021/05/29 05:52:05;;;;;;;13.98;9.35;;;;;;;11.18;88.15;102774.06;5114380;28;20563;-43
2021/05/29 05:54:32;;;;;;;11.50;8.18;;;;;;;11.22;87.95;102772.44;5113715;28;20105;-43
2021/05/29 05:57:00;;;;;;;11.07;7.80;;;;;;;11.26;87.77;102780.06;5109518;28;20093;-42
2021/05/29 05:59:28;;;;;;;12.02;8.70;;;;;;;11.27;87.34;102781.75;5114265;28;20083;-43
2021/05/29 06:01:55;;;;;;;12.35;8.60;;;;;;;11.33;87.20;102777.94;5113187;28;20086;-42
2021/05/29 06:04:23;;;;;;;12.27;8.32;;;;;;;11.45;86.94;102785.34;5109367;28;20040;-43
2021/05/29 06:06:50;;;;;;;11.02;7.03;;;;;;;11.55;86.28;102791.09;5111802;28;20446;-42
2021/05/29 06:09:17;;;;;;;10.02;7.65;;;;;;;11.60;86.26;102788.34;5112620;28;20069;-43
2021/05/29 06:11:45;;;;;;;10.60;7.38;;;;;;;11.66;86.04;102785.38;5110797;28;20035;-43
2021/05/29 06:19:46;;;;;;;9.70;7.05;;;;;;;11.99;85.00;102795.59;5112321;28;20047;-47
2021/05/29 06:22:13;;;;;;;9.80;7.03;;;;;;;12.02;84.03;102795.06;5111167;28;20108;-42
2021/05/29 06:24:40;;;;;;;8.25;6.55;;;;;;;12.08;83.84;102801.59;5112457;28;20113;-43
2021/05/29 06:27:10;;;;;;;8.43;6.90;;;;;;;12.14;83.48;102799.69;5111717;28;20043;-43
2021/05/29 06:29:39;;;;;;;9.98;6.75;;;;;;;12.22;83.39;102802.84;5111543;28;20592;-46
2021/05/29 06:32:07;;;;;;;8.20;6.07;;;;;;;12.31;82.83;102814.44;5111959;28;20430;-42
2021/05/29 06:34:35;;;;;;;7.65;6.07;;;;;;;12.39;82.18;102812.00;5110484;28;20073;-45
2021/05/29 06:37:02;;;;;;;8.43;5.57;;;;;;;12.43;81.45;102810.38;5111270;28;20565;-43
2021/05/29 06:39:30;;;;;;;7.80;6.07;;;;;;;12.49;81.31;102816.88;5112103;28;20043;-43
2021/05/29 06:41:57;;;;;;;8.95;6.15;;;;;;;12.55;80.84;102815.84;5110894;28;20484;-45
2021/05/29 06:44:25;;;;;;;10.65;6.57;;;;;;;12.60;80.37;102821.47;5111949;28;20039;-44
2021/05/29 06:46:53;;;;;;;7.28;5.97;;;;;;;12.76;80.10;102820.53;5111308;28;20527;-43
2021/05/29 06:49:22;;;;;;;8.77;6.47;;;;;;;13.03;79.80;102814.84;5110812;28;20067;-44
2021/05/29 06:51:55;;;;;;;9.25;6.85;;;;;;;13.17;78.69;102820.88;5111898;28;20139;-43
2021/05/29 06:54:32;;;;;;;8.35;6.97;;;;;;;13.21;78.25;102816.41;5109781;28;20043;-43
2021/05/29 06:59:44;;;;;;;8.00;6.13;;;;;;;13.23;77.43;102817.00;5111262;28;20070;-42
2021/05/29 07:02:13;;;;;;;9.50;5.85;;;;;;;13.18;76.76;102822.59;5111323;28;20043;-43
2021/05/29 07:04:40;;;;;;;9.27;6.78;;;;;;;13.13;76.65;102818.84;5106741;28;20044;-43
2021/05/29 07:07:08;;;;;;;10.52;6.40;;;;;;;13.09;76.69;102826.94;5111129;28;20042;-43
2021/05/29 07:09:35;;;;;;;8.93;5.78;;;;;;;13.07;76.84;102827.22;5111133;28;20531;-41
2021/05/29 07:12:03;;;;;;;10.85;6.78;;;;;;;13.06;76.69;102825.53;5106494;28;20043;-46
2021/05/29 07:14:30;;;;;;;11.18;6.38;;;;;;;13.06;76.42;102830.28;5111270;28;20377;-45
2021/05/29 07:17:00;;;;;;;9.40;6.63;;;;;;;13.09;76.34;102829.75;5111201;28;20082;-44
2021/05/29 07:19:28;;;;;;;10.68;6.82;;;;;;;13.16;75.94;102830.41;5110507;28;20043;-42
2021/05/29 07:21:56;;;;;;;9.65;6.25;;;;;;;13.22;75.54;102829.31;5110975;28;20051;-44
2021/05/29 07:24:24;;;;;;;9.25;6.70;;;;;;;13.21;74.83;102829.59;5110207;28;20043;-44
2021/05/29 07:26:52;;;;;;;11.90;7.03;;;;;;;13.24;74.93;102827.09;5107925;28;20520;-47
2021/05/29 07:29:21;;;;;;;9.88;6.47;;;;;;;13.32;75.10;102835.00;5110675;28;20123;-45
2021/05/29 07:31:48;;;;;;;10.57;7.10;;;;;;;13.34;74.50;102837.53;5110511;28;20092;-43
2021/05/29 07:34:16;;;;;;;8.50;6.38;;;;;;;13.39;74.81;102834.75;5110772;28;20058;-44
2021/05/29 07:36:45;;;;;;;11.80;8.07;;;;;;;13.45;74.25;102839.28;5110745;28;20507;-43
2021/05/29 07:39:12;;;;;;;11.77;7.57;;;;;;;13.48;74.31;102837.91;5109588;28;20065;-44
2021/05/29 07:41:40;;;;;;;10.00;6.88;;;;;;;13.54;74.43;102848.06;5110525;28;20068;-44
2021/05/29 07:44:08;;;;;;;10.70;6.68;;;;;;;13.57;74.03;102848.38;5110587;28;20052;-44
2021/05/29 07:46:36;;;;;;;8.73;5.97;;;;;;;13.61;73.99;102843.03;5110029;28;20039;-42
2021/05/29 07:49:04;;;;;;;11.23;7.60;;;;;;;13.63;73.78;102852.03;5106393;28;20123;-46
2021/05/29 07:51:35;;;;;;;12.70;7.60;;;;;;;13.62;73.60;102856.78;5110679;28;20117;-43
2021/05/29 07:54:05;;;;;;;10.48;6.75;;;;;;;13.61;73.54;102851.44;5108512;28;20105;-42
2021/05/29 07:56:34;;;;;;;10.10;7.03;;;;;;;13.59;73.46;102860.13;5110402;28;20051;-45
2021/05/29 07:59:06;;;;;;;9.90;7.90;;;;;;;13.61;73.70;102862.66;5109970;28;20382;-45
2021/05/29 08:01:34;;;;;;;12.07;7.75;;;;;;;13.63;73.87;102863.25;5106003;28;20068;-44
2021/05/29 08:04:02;;;;;;;11.65;7.28;;;;;;;13.61;73.69;102866.31;5105868;28;20140;-44
2021/05/29 08:06:30;;;;;;;12.15;7.60;;;;;;;13.59;73.92;102862.13;5108638;28;20063;-45
2021/05/29 08:08:57;;;;;;;12.85;7.18;;;;;;;13.59;73.74;102862.13;5109497;28;20044;-44
2021/05/29 08:11:25;;;;;;;11.95;6.20;;;;;;;13.61;73.95;102869.13;5108724;28;20038;-47
2021/05/29 08:13:54;;;;;;;10.32;6.72;;;;;;;13.61;73.55;102862.66;5109881;28;20044;-43
2021/05/29 08:16:23;;;;;;;10.10;6.13;;;;;;;13.63;73.72;102858.47;5109567;28;20047;-45
2021/05/29 08:18:51;;;;;;;8.75;6.55;;;;;;;13.65;73.51;102867.47;5109802;28;20052;-45
2021/05/29 08:21:19;;;;;;;8.95;5.70;;;;;;;13.65;73.33;102869.44;5109320;28;20047;-43
2021/05/29 08:23:46;;;;;;;8.02;5.63;;;;;;;13.63;73.21;102864.09;5110252;28;20074;-45
2021/05/29 08:26:14;;;;;;;12.77;6.22;;;;;;;13.66;73.23;102868.31;5109512;28;20047;-43
2021/05/29 08:28:44;;;;;;;11.30;6.93;;;;;;;13.68;73.12;102866.94;5109610;28;20126;-44
2021/05/29 08:31:12;;;;;;;8.65;5.85;;;;;;;13.70;73.27;102866.66;5109401;28;20457;-47
2021/05/29 08:33:41;;;;;;;8.98;5.18;;;;;;;13.73;73.25;102871.75;5109065;28;20557;-44
2021/05/29 08:36:08;;;;;;;10.05;6.25;;;;;;;13.77;72.93;102867.28;5109026;28;20036;-48
2021/05/29 08:38:36;;;;;;;7.93;5.35;;;;;;;13.79;72.76;102873.44;5108359;28;20058;-46
2021/05/29 08:41:04;;;;;;;9.30;6.28;;;;;;;13.83;72.80;102868.13;5105455;28;20489;-45
2021/05/29 08:43:32;;;;;;;9.52;5.15;;;;;;;13.88;72.62;102873.78;5109188;28;20044;-44
2021/05/29 08:46:01;;;;;;;9.93;6.22;;;;;;;13.94;72.30;102870.75;5109299;28;20067;-45
2021/05/29 08:48:28;;;;;;;7.38;5.10;;;;;;;14.02;72.46;102878.63;5110087;28;20036;-45
2021/05/29 08:53:38;;;;;;;8.65;5.30;;;;;;;14.32;71.84;102872.31;5103555;28;20418;-50
2021/05/29 08:56:06;;;;;;;7.70;4.82;;;;;;;14.46;71.05;102865.06;5108679;28;20097;-46
2021/05/29 08:58:33;;;;;;;9.48;5.47;;;;;;;14.63;70.79;102875.22;5105588;28;20096;-48
2021/05/29 09:01:02;;;;;;;7.13;5.30;;;;;;;14.77;70.17;102876.41;5109549;28;20087;-44
2021/05/29 09:03:44;;;;;;;7.70;5.32;;;;;;;14.95;69.90;102881.47;5109204;28;20050;-47
2021/05/29 09:06:14;;;;;;;6.90;4.43;;;;;;;15.04;69.18;102878.94;5106570;28;20036;-48
2021/05/29 09:08:52;;;;;;;8.77;4.68;;;;;;;15.12;68.52;102892.47;5109429;28;20109;-47
2021/05/29 09:11:38;;;;;;;8.95;5.22;;;;;;;15.19;68.66;102881.75;5109058;28;20502;-47
2021/05/29 09:14:27;;;;;;;6.93;5.05;;;;;;;15.28;68.11;102885.69;5106069;28;20091;-46
2021/05/29 09:17:07;;;;;;;9.15;5.35;;;;;;;15.33;67.85;102885.72;5098884;28;20101;-44
2021/05/29 09:20:06;;;;;;;8.45;4.82;;;;;;;15.38;67.31;102894.16;5106063;28;20042;-45
2021/05/29 09:22:36;;;;;;;7.28;5.18;;;;;;;15.35;67.93;102888.25;5019577;28;20080;-45
2021/05/29 09:25:14;;;;;;;7.05;4.38;;;;;;;15.37;68.02;102891.63;5094426;28;20046;-44
2021/05/29 09:27:53;;;;;;;8.63;5.05;;;;;;;15.33;67.54;102884.88;5110212;28;20051;-44
2021/05/29 09:30:47;;;;;;;7.63;4.50;;;;;;;15.25;67.37;102891.88;5111900;28;20044;-49
2021/05/29 09:33:18;;;;;;;8.13;4.20;;;;;;;15.15;67.85;102891.91;5109380;28;20043;-46
2021/05/29 09:35:47;;;;;;;8.45;5.10;;;;;;;15.11;68.12;102894.44;5112376;28;20047;-46
2021/05/29 09:38:15;;;;;;;6.03;4.45;;;;;;;15.06;68.27;102900.03;5112374;28;20047;-48
2021/05/29 09:40:51;;;;;;;9.60;5.40;;;;;;;14.98;68.37;102891.31;5113112;28;20085;-45
2021/05/29 09:43:18;;;;;;;7.10;4.63;;;;;;;14.95;68.91;102894.69;5113137;28;20100;-45
2021/05/29 09:45:45;;;;;;;7.60;4.97;;;;;;;14.98;69.26;102894.13;5112512;28;20043;-46
2021/05/29 09:48:20;;;;;;;8.25;4.78;;;;;;;15.06;69.04;102899.19;5112360;28;20430;-43
2021/05/29 09:50:59;;;;;;;8.00;4.32;;;;;;;15.17;69.02;102895.28;5112989;28;20073;-44
2021/05/29 09:53:27;;;;;;;7.95;4.20;;;;;;;15.24;68.58;102901.44;5112510;28;20488;-44
2021/05/29 09:55:54;;;;;;;8.27;4.40;;;;;;;15.31;67.98;102896.41;5112553;28;20139;-43
2021/05/29 09:58:42;;;;;;;8.32;4.28;;;;;;;15.32;67.72;102900.06;5111152;28;20040;-46
2021/05/29 10:01:38;;;;;;;9.52;4.47;;;;;;;15.32;67.31;102902.88;5109890;28;20044;-46
2021/05/29 10:04:08;;;;;;;6.93;3.95;;;;;;;15.31;67.75;102907.66;5108880;28;20044;-45
2021/05/29 10:06:35;;;;;;;7.65;4.00;;;;;;;15.34;67.25;102901.47;5110742;28;20408;-45
2021/05/29 10:09:05;;;;;;;5.40;3.58;;;;;;;15.36;67.33;102904.84;5108225;28;20044;-46
2021/05/29 10:11:35;;;;;;;7.00;3.53;;;;;;;15.39;66.81;102903.41;5110020;28;20135;-49
2021/05/29 10:14:05;;;;;;;5.72;3.22;;;;;;;15.35;66.45;102897.53;5107950;28;20127;-46
2021/05/29 10:16:34;;;;;;;6.13;3.67;;;;;;;15.33;66.43;102899.78;5108629;28;20047;-49
2021/05/29 10:19:02;;;;;;;7.03;3.63;;;;;;;15.30;66.16;102899.50;5111846;28;20068;-45
2021/05/29 10:21:31;;;;;;;6.45;4.05;;;;;;;15.26;66.11;102910.44;5111804;28;20051;-46
2021/05/29 10:24:01;;;;;;;7.57;4.25;;;;;;;15.24;65.82;102912.69;5111789;28;20412;-45
2021/05/29 10:26:29;;;;;;;7.65;3.38;;;;;;;15.24;65.37;102903.41;5112489;28;20051;-45
2021/05/29 10:28:58;;;;;;;6.97;3.60;;;;;;;15.21;65.36;102907.63;5111380;28;20431;-43
2021/05/29 10:31:31;;;;;;;5.65;3.30;;;;;;;15.22;65.41;102908.47;5111302;28;20043;-48
2021/05/29 10:34:05;;;;;;;5.47;3.28;;;;;;;15.19;65.26;102909.88;5111152;28;20044;-46
2021/05/29 10:36:53;;;;;;;5.90;3.40;;;;;;;15.19;64.73;102911.88;5110617;28;20097;-44
2021/05/29 10:39:23;;;;;;;6.80;3.58;;;;;;;15.18;64.83;102913.84;5110745;28;20117;-45
2021/05/29 10:41:56;;;;;;;6.10;3.50;;;;;;;15.25;64.83;102920.00;5111352;28;20412;-47
2021/05/29 10:44:39;;;;;;;5.68;3.60;;;;;;;15.33;64.41;102916.66;5112007;28;20145;-46
2021/05/29 10:47:13;;;;;;;6.05;3.60;;;;;;;15.37;64.57;102922.56;5108289;28;20055;-49
2021/05/29 10:49:57;;;;;;;6.40;3.15;;;;;;;15.39;63.94;102921.13;5108192;28;21064;-48
2021/05/29 10:52:52;;;;;;;4.80;2.92;;;;;;;15.40;63.80;102922.81;5110544;28;20484;-46
2021/05/29 10:55:24;;;;;;;8.10;3.65;;;;;;;15.38;63.94;102922.28;5089893;28;20051;-49
2021/05/29 10:57:57;;;;;;;6.88;3.00;;;;;;;15.39;63.47;102921.13;5111479;28;20055;-48
2021/05/29 11:00:58;;;;;;;4.88;2.58;;;;;;;15.40;62.14;102921.97;5110432;28;20092;-48
2021/05/29 11:03:30;;;;;;;5.60;2.72;;;;;;;15.37;62.93;102923.41;5109973;28;20096;-45
2021/05/29 11:06:00;;;;;;;4.77;2.87;;;;;;;15.36;63.02;102926.50;5111425;28;20105;-44
2021/05/29 11:08:51;;;;;;;5.93;3.05;;;;;;;15.38;62.30;102918.63;5111491;28;20424;-44
2021/05/29 11:11:52;;;;;;;6.13;3.40;;;;;;;15.49;63.16;102926.78;5108626;28;20534;-44
2021/05/29 11:14:22;;;;;;;5.07;3.08;;;;;;;15.64;63.39;102922.28;5109550;28;20039;-47
2021/05/29 11:17:13;;;;;;;7.63;3.20;;;;;;;15.75;62.37;102924.81;5110440;28;20100;-45
2021/05/29 11:19:59;;;;;;;4.57;2.60;;;;;;;15.85;62.68;102918.31;5103437;28;20055;-45
2021/05/29 11:22:36;;;;;;;6.45;3.03;;;;;;;16.05;62.63;102923.03;5111177;28;20116;-44
2021/05/29 11:25:06;;;;;;;6.28;2.88;;;;;;;16.31;62.23;102929.44;5107682;28;20050;-44
2021/05/29 11:27:38;;;;;;;4.47;2.72;;;;;;;16.47;61.52;102925.44;5109131;28;20149;-48
2021/05/29 11:30:08;;;;;;;3.77;2.33;;;;;;;16.60;61.17;102924.78;5110957;28;20052;-45
2021/05/29 11:32:53;;;;;;;5.30;2.95;;;;;;;16.78;60.24;102929.81;5107447;28;20093;-48
2021/05/29 11:35:26;;;;;;;6.53;2.70;;;;;;;16.90;59.97;102920.16;5109513;28;20459;-44
2021/05/29 11:37:59;;;;;;;4.60;2.63;;;;;;;16.97;59.66;102923.50;5109770;28;20051;-44
2021/05/29 11:40:54;;;;;;;5.07;2.58;;;;;;;16.93;58.71;102928.03;5110211;28;20504;-44
2021/05/29 11:43:34;;;;;;;5.97;2.60;;;;;;;16.89;59.34;102924.94;5110517;28;20036;-46
2021/05/29 11:46:05;;;;;;;6.47;2.85;;;;;;;16.87;59.53;102930.88;5109340;28;20051;-49
2021/05/29 11:48:34;;;;;;;5.90;2.83;;;;;;;16.84;59.74;102936.25;5109259;28;20485;-45